Webcam Flughafen St.Gallen-Altenrhein

Live-Bilder und Zeitraffer LSZR / ACH.

 

Live aus Altenrhein
LIVE
LSZR 200450Z AUTO 13002KT CAVOK M02/M03 Q1031
Zeitraffer heute
2019-03-20 00:15:00
LSZR 192250Z AUTO VRB02KT CAVOK 01/M01 Q1031
Zeitraffer gestern
2019-03-19 00:14:49
LSZR 182250Z AUTO VRB01KT 9999 FEW060 01/01 Q1024
Zeitraffer vor 3 Tagen
2019-03-17 00:14:40
LSZR 162250Z AUTO 34003KT 280V060 9999 -RA BKN/// 05/02 Q1011